Terminal Aerodrome Forecast
Issued by NWS

Home | Current Version | Previous Version | Text Only | Print | Product List | Glossary On
Versions: 1 2 3 4 5 6 7 8 9 10 11 12 13 14
000
FTUS45 KLKN 072338
TAFEKO
TAF
KEKO 072338Z 0800/0824 VRB03KT P6SM BKN150
     FM081000 07005KT P6SM -SHSN SCT025 OVC045
     FM081200 09008KT 5SM -SHSN OVC025
     FM082200 17007KT P6SM -RASN SCT030 OVC040=

USA.gov is the U.S. government's official web portal to all federal, state and local government web resources and services.